createdAt,value
2023-02-02T07:37:54.454Z,56.48
2023-02-02T07:40:58.006Z,58.05
2023-02-02T07:44:01.754Z,58.21
2023-02-02T07:47:05.753Z,58.08
2023-02-02T07:50:11.163Z,57.60
2023-02-02T07:53:16.499Z,58.05
2023-02-02T07:56:23.019Z,58.65
2023-02-02T07:59:26.418Z,58.25
2023-02-02T08:02:29.577Z,58.25
2023-02-02T08:05:34.700Z,59.82
2023-02-02T08:08:39.635Z,58.94
2023-02-02T08:11:43.190Z,58.97
2023-02-02T08:14:46.399Z,59.61
2023-02-02T08:17:49.922Z,59.87
2023-02-02T08:20:53.266Z,59.58
2023-02-02T08:23:58.444Z,58.94
2023-02-02T08:27:01.752Z,59.63
2023-02-02T08:30:06.073Z,58.04
2023-02-02T08:33:09.403Z,57.97
2023-02-02T08:36:14.661Z,58.03
2023-02-02T08:39:19.208Z,57.70
2023-02-02T08:42:22.884Z,58.13
2023-02-02T08:46:02.074Z,58.20
2023-02-02T08:48:50.455Z,58.51
2023-02-02T08:51:53.759Z,57.69
2023-02-02T08:54:58.663Z,57.39
2023-02-02T08:58:01.855Z,57.25
2023-02-02T09:01:08.081Z,56.65
2023-02-02T09:04:17.032Z,56.36
2023-02-02T09:07:21.299Z,55.76
2023-02-02T09:10:26.140Z,55.83
2023-02-02T09:13:29.806Z,56.16
2023-02-02T09:16:36.067Z,56.69
2023-02-02T09:19:39.599Z,55.22
2023-02-02T09:22:43.043Z,56.77
2023-02-02T09:25:48.269Z,56.08
2023-02-02T09:28:56.114Z,55.82
2023-02-02T09:31:59.691Z,55.10
2023-02-02T09:35:03.253Z,55.90
2023-02-02T09:38:06.880Z,55.32
2023-02-02T09:42:10.751Z,56.22
2023-02-02T09:45:32.601Z,56.73
2023-02-02T09:48:52.966Z,56.50
2023-02-02T09:52:06.182Z,57.49
2023-02-02T09:55:19.393Z,56.53
2023-02-02T09:58:28.800Z,56.32
2023-02-02T10:01:39.854Z,56.20
2023-02-02T10:04:50.163Z,56.49
2023-02-02T10:08:03.179Z,57.31
2023-02-02T10:11:28.871Z,56.22
2023-02-02T10:14:42.439Z,56.09
2023-02-02T10:17:56.567Z,55.46
2023-02-02T10:21:04.458Z,56.25
2023-02-02T10:24:18.984Z,55.67
2023-02-02T10:27:37.917Z,55.80
2023-02-02T10:30:47.761Z,57.07
2023-02-02T10:34:07.755Z,56.47
2023-02-02T10:37:28.952Z,56.77
2023-02-02T10:40:55.528Z,57.46
2023-02-02T10:44:17.421Z,57.64
2023-02-02T10:47:28.685Z,56.73
2023-02-02T10:50:33.703Z,56.28
2023-02-02T10:53:37.487Z,55.29
2023-02-02T10:56:52.639Z,55.66
2023-02-02T11:00:06.495Z,55.33
2023-02-02T11:03:12.924Z,56.02
2023-02-02T11:06:35.635Z,55.87
2023-02-02T11:09:43.615Z,56.12
2023-02-02T11:12:53.113Z,56.06
2023-02-02T11:16:43.272Z,55.59
2023-02-02T11:19:47.985Z,55.95
2023-02-02T11:23:03.054Z,56.42
2023-02-02T11:26:07.471Z,56.10
2023-02-02T11:29:20.572Z,55.27
2023-02-02T11:32:32.491Z,56.06
2023-02-02T11:35:53.109Z,55.30
2023-02-02T11:39:17.256Z,55.65
2023-02-02T11:42:24.837Z,54.99
2023-02-02T11:45:37.281Z,55.42
2023-02-02T11:48:50.931Z,56.37
2023-02-02T11:52:01.007Z,53.64
2023-02-02T11:55:26.136Z,52.76
2023-02-02T11:58:43.376Z,52.42
2023-02-02T12:01:46.687Z,52.65
2023-02-02T12:04:53.699Z,52.53
2023-02-02T12:07:56.947Z,53.49
2023-02-02T12:11:07.221Z,52.92
2023-02-02T12:14:32.436Z,53.30
2023-02-02T12:17:43.054Z,52.82
2023-02-02T12:20:59.820Z,53.53
2023-02-02T12:24:31.317Z,57.03
2023-02-02T12:27:50.390Z,53.82
2023-02-02T12:31:07.905Z,51.64
2023-02-02T12:34:31.073Z,44.60
2023-02-02T12:37:54.531Z,45.98
2023-02-02T12:41:23.143Z,46.48
2023-02-02T12:44:39.775Z,47.06
2023-02-02T12:48:02.066Z,46.33
2023-02-02T12:51:29.381Z,46.50
2023-02-02T12:55:03.007Z,47.33
2023-02-02T12:58:20.062Z,47.94
2023-02-02T13:01:44.357Z,48.50
2023-02-02T13:05:10.400Z,48.71
2023-02-02T13:08:22.543Z,49.25
2023-02-02T13:11:42.034Z,49.65
2023-02-02T13:14:51.644Z,49.03
2023-02-02T13:18:00.187Z,49.07
2023-02-02T13:21:08.553Z,49.84
2023-02-02T13:24:26.333Z,49.33
2023-02-02T13:27:32.542Z,50.12
2023-02-02T13:30:40.456Z,49.48
2023-02-02T13:33:51.225Z,49.74
2023-02-02T13:37:03.019Z,50.08
2023-02-02T13:40:25.811Z,49.91
2023-02-02T13:43:44.081Z,50.04
2023-02-02T13:46:59.698Z,49.98
2023-02-02T13:50:14.688Z,50.44
2023-02-02T13:53:48.263Z,50.54
2023-02-02T13:57:06.171Z,50.55
2023-02-02T14:00:19.388Z,51.19
2023-02-02T14:03:38.714Z,51.64
2023-02-02T14:06:59.101Z,50.75
2023-02-02T14:10:04.393Z,50.47
2023-02-02T14:13:39.541Z,51.11
2023-02-02T14:16:53.373Z,52.14
2023-02-02T14:19:58.205Z,53.36
2023-02-02T14:23:03.120Z,53.96
2023-02-02T14:26:09.652Z,54.06
2023-02-02T14:29:58.432Z,53.37
2023-02-02T14:33:39.171Z,53.86
2023-02-02T14:37:00.607Z,56.31
2023-02-02T14:40:29.105Z,58.27
2023-02-02T14:43:49.560Z,58.60
2023-02-02T14:46:54.373Z,57.80
2023-02-02T14:49:59.516Z,56.36
2023-02-02T14:53:18.715Z,56.03
2023-02-02T14:56:46.896Z,56.20
2023-02-02T14:59:55.145Z,55.30
2023-02-02T15:03:38.893Z,56.08
2023-02-02T15:06:43.609Z,56.59
2023-02-02T15:09:46.832Z,55.06
2023-02-02T15:13:08.576Z,55.81
2023-02-02T15:16:28.625Z,54.91
2023-02-02T15:19:40.970Z,55.00
2023-02-02T15:22:52.303Z,55.14
2023-02-02T15:26:04.639Z,55.34
2023-02-02T15:29:22.203Z,55.35
2023-02-02T15:32:28.447Z,54.91
2023-02-02T15:35:36.618Z,55.00
2023-02-02T15:38:44.335Z,53.78
2023-02-02T15:42:10.841Z,54.01
2023-02-02T15:45:39.823Z,53.40
2023-02-02T15:48:43.953Z,53.81
2023-02-02T15:51:50.870Z,54.09
2023-02-02T15:54:57.317Z,54.88
2023-02-02T15:58:01.402Z,54.75
2023-02-02T16:01:16.709Z,55.45
2023-02-02T16:04:31.231Z,61.50
2023-02-02T16:07:35.044Z,58.70
2023-02-02T16:10:38.840Z,58.41
2023-02-02T16:13:54.913Z,58.09
2023-02-02T16:17:13.617Z,57.90
2023-02-02T16:20:19.283Z,58.28
2023-02-02T16:23:31.525Z,58.97
2023-02-02T16:26:37.103Z,58.79
2023-02-02T16:29:41.814Z,58.18
2023-02-02T16:32:46.593Z,59.06
2023-02-02T16:35:50.073Z,58.18
2023-02-02T16:38:55.976Z,59.04
2023-02-02T16:42:11.375Z,58.65
2023-02-02T16:45:35.999Z,59.29
2023-02-02T16:48:45.135Z,58.40
2023-02-02T16:52:07.850Z,58.75
2023-02-02T16:55:11.747Z,58.56
2023-02-02T16:58:19.685Z,58.04
2023-02-02T17:01:23.265Z,58.18
2023-02-02T17:04:32.626Z,58.48
2023-02-02T17:07:39.798Z,58.27
2023-02-02T17:10:44.973Z,58.91
2023-02-02T17:13:48.461Z,58.47
2023-02-02T17:16:52.151Z,59.18
2023-02-02T17:19:57.482Z,58.34
2023-02-02T17:23:05.021Z,59.27
2023-02-02T17:26:10.219Z,60.01
2023-02-02T17:29:17.105Z,59.59
2023-02-02T17:32:20.876Z,59.93
2023-02-02T17:35:37.111Z,60.19
2023-02-02T17:38:47.434Z,60.27
2023-02-02T17:41:51.482Z,59.89
2023-02-02T17:44:55.352Z,59.83
2023-02-02T17:47:59.850Z,59.56
2023-02-02T17:51:07.105Z,59.42
2023-02-02T17:54:13.414Z,59.37
2023-02-02T17:57:17.041Z,59.67
2023-02-02T18:00:24.153Z,60.38
2023-02-02T18:03:34.300Z,59.83
2023-02-02T18:06:40.069Z,62.36
2023-02-02T18:09:43.730Z,63.29
2023-02-02T18:12:47.286Z,65.09
2023-02-02T18:15:53.062Z,64.16
2023-02-02T18:18:57.562Z,62.35
2023-02-02T18:22:02.464Z,62.79
2023-02-02T18:25:06.690Z,63.60
2023-02-02T18:28:11.471Z,61.79
2023-02-02T18:31:19.396Z,61.65
2023-02-02T18:34:22.953Z,61.76
2023-02-02T18:37:27.851Z,61.05
2023-02-02T18:40:31.361Z,60.52
2023-02-02T18:43:35.077Z,61.83
2023-02-02T18:46:38.793Z,61.12
2023-02-02T18:49:42.249Z,61.67
2023-02-02T18:52:47.091Z,61.26
2023-02-02T18:55:50.774Z,61.99
2023-02-02T18:58:54.767Z,67.72
2023-02-02T19:01:58.382Z,65.07
2023-02-02T19:05:19.428Z,63.89
2023-02-02T19:08:25.333Z,63.43
2023-02-02T19:11:40.249Z,63.54
2023-02-02T19:14:43.797Z,62.75
2023-02-02T19:17:50.480Z,62.67
2023-02-02T19:20:54.636Z,62.78
2023-02-02T19:24:00.847Z,61.97
2023-02-02T19:27:12.594Z,62.00
2023-02-02T19:30:23.807Z,61.35
2023-02-02T19:33:39.267Z,62.25
2023-02-02T19:36:46.787Z,62.06
2023-02-02T19:39:52.190Z,61.92
2023-02-02T19:43:18.896Z,62.12
2023-02-02T19:46:27.037Z,61.20
2023-02-02T19:49:35.173Z,61.96
2023-02-02T19:52:39.708Z,61.21
2023-02-02T19:55:48.904Z,61.59
2023-02-02T19:58:53.724Z,60.53
2023-02-02T20:01:57.401Z,58.26
2023-02-02T20:05:07.524Z,59.27
2023-02-02T20:08:24.436Z,59.10
2023-02-02T20:11:36.084Z,59.51
2023-02-02T20:14:39.886Z,59.17
2023-02-02T20:17:43.145Z,58.58
2023-02-02T20:20:53.810Z,58.52
2023-02-02T20:23:58.187Z,59.41
2023-02-02T20:27:26.456Z,59.76
2023-02-02T20:30:31.916Z,59.53
2023-02-02T20:33:49.501Z,59.50
2023-02-02T20:36:54.936Z,59.04
2023-02-02T20:40:01.209Z,59.80
2023-02-02T20:43:06.171Z,60.61
2023-02-02T20:46:09.870Z,60.24
2023-02-02T20:49:13.349Z,59.22
2023-02-02T20:52:23.755Z,59.20
2023-02-02T20:55:28.319Z,59.15
2023-02-02T20:58:33.292Z,59.17
2023-02-02T21:01:36.798Z,59.10
2023-02-02T21:04:46.515Z,58.69
2023-02-02T21:07:54.780Z,59.42
2023-02-02T21:10:58.535Z,58.79
2023-02-02T21:14:03.326Z,59.10
2023-02-02T21:17:14.734Z,60.48
2023-02-02T21:20:19.941Z,59.41
2023-02-02T21:23:23.412Z,58.77
2023-02-02T21:26:30.375Z,59.30
2023-02-02T21:29:36.102Z,58.78
2023-02-02T21:32:39.711Z,59.77
2023-02-02T21:35:43.188Z,59.77
2023-02-02T21:38:47.022Z,59.58
2023-02-02T21:41:55.102Z,59.55
2023-02-02T21:45:26.598Z,59.71
2023-02-02T21:48:38.715Z,59.14
2023-02-02T21:51:43.243Z,59.38
2023-02-02T21:54:47.520Z,59.61
2023-02-02T21:57:50.703Z,59.12
2023-02-02T22:01:03.785Z,58.87
2023-02-02T22:04:17.334Z,58.42
2023-02-02T22:07:20.946Z,58.67
2023-02-02T22:10:36.432Z,58.62
2023-02-02T22:13:39.887Z,58.94
2023-02-02T22:16:48.885Z,58.78
2023-02-02T22:19:59.895Z,74.98
2023-02-02T22:23:04.522Z,73.09
2023-02-02T22:26:32.313Z,70.70
2023-02-02T22:29:36.468Z,69.37
2023-02-02T22:32:41.292Z,67.98
2023-02-02T22:35:46.426Z,66.85
2023-02-02T22:38:49.872Z,65.90
2023-02-02T22:41:53.379Z,65.76
2023-02-02T22:44:56.828Z,71.04
2023-02-02T22:48:01.568Z,69.53
2023-02-02T22:51:05.250Z,69.14
2023-02-02T22:54:08.759Z,69.31
2023-02-02T22:57:12.353Z,68.93
2023-02-02T23:00:19.150Z,68.34
2023-02-02T23:03:24.189Z,67.69
2023-02-02T23:06:27.636Z,67.66
2023-02-02T23:09:31.214Z,66.46
2023-02-02T23:12:35.265Z,66.73
2023-02-02T23:15:38.862Z,66.49
2023-02-02T23:18:44.147Z,66.66
2023-02-02T23:21:47.615Z,65.92
2023-02-02T23:24:50.968Z,65.76
2023-02-02T23:27:54.520Z,66.02
2023-02-02T23:30:59.257Z,66.35
2023-02-02T23:34:04.463Z,66.06
2023-02-02T23:37:07.658Z,65.80
2023-02-02T23:40:13.506Z,65.41
2023-02-02T23:43:16.896Z,65.26
2023-02-02T23:46:20.642Z,65.57
2023-02-02T23:49:26.127Z,65.07
2023-02-02T23:52:29.769Z,64.64
2023-02-02T23:55:33.824Z,65.51
2023-02-02T23:58:37.588Z,64.95
